createdAt,value
2023-01-13T00:04:48.565Z,10.20
2023-01-13T00:09:50.489Z,10.30
2023-01-13T00:14:52.352Z,10.30
2023-01-13T00:19:54.214Z,10.30
2023-01-13T00:24:58.258Z,10.40
2023-01-13T00:30:00.195Z,10.40
2023-01-13T00:35:03.940Z,10.40
2023-01-13T00:40:06.321Z,10.40
2023-01-13T00:45:08.446Z,10.40
2023-01-13T00:50:10.929Z,10.40
2023-01-13T00:55:12.757Z,10.50
2023-01-13T01:00:15.045Z,10.50
2023-01-13T01:05:16.999Z,10.60
2023-01-13T01:10:18.904Z,10.50
2023-01-13T01:15:21.041Z,10.60
2023-01-13T01:20:22.867Z,10.60
2023-01-13T01:25:24.735Z,10.60
2023-01-13T01:30:26.863Z,10.70
2023-01-13T01:35:28.924Z,10.80
2023-01-13T01:40:30.723Z,10.70
2023-01-13T01:45:32.803Z,10.90
2023-01-13T01:50:36.066Z,10.90
2023-01-13T01:55:38.803Z,10.90
2023-01-13T02:00:40.966Z,10.90
2023-01-13T02:05:42.930Z,10.80
2023-01-13T02:10:50.139Z,10.80
2023-01-13T02:16:00.671Z,10.70
2023-01-13T02:21:27.837Z,10.80
2023-01-13T02:26:29.608Z,10.70
2023-01-13T02:31:45.089Z,10.70
2023-01-13T02:36:55.715Z,10.70
2023-01-13T02:42:28.646Z,10.70
2023-01-13T02:47:34.150Z,10.70
2023-01-13T02:52:53.238Z,10.80
2023-01-13T02:57:58.693Z,10.70
2023-01-13T03:03:01.509Z,10.60
2023-01-13T03:08:43.177Z,10.60
2023-01-13T03:14:02.212Z,10.50
2023-01-13T03:19:09.589Z,10.60
2023-01-13T03:24:22.573Z,10.60
2023-01-13T03:29:45.624Z,10.50
2023-01-13T03:35:12.600Z,10.60
2023-01-13T03:40:26.129Z,10.60
2023-01-13T03:45:31.028Z,10.40
2023-01-13T03:50:40.894Z,10.40
2023-01-13T03:55:48.503Z,10.30
2023-01-13T04:01:15.622Z,10.20
2023-01-13T04:06:40.213Z,10.20
2023-01-13T04:11:53.550Z,10.20
2023-01-13T04:16:56.101Z,10.10
2023-01-13T04:21:57.835Z,10.10
2023-01-13T04:26:59.577Z,10.20
2023-01-13T04:32:01.319Z,10.20
2023-01-13T04:37:03.122Z,10.30
2023-01-13T04:42:04.987Z,10.30
2023-01-13T04:47:06.757Z,10.40
2023-01-13T04:52:08.555Z,10.40
2023-01-13T04:57:10.265Z,10.50
2023-01-13T05:02:19.531Z,10.50
2023-01-13T05:07:21.381Z,10.40
2023-01-13T05:12:42.051Z,10.40
2023-01-13T05:17:44.073Z,10.40
2023-01-13T05:23:04.648Z,10.30
2023-01-13T05:28:07.504Z,10.30
2023-01-13T05:33:10.732Z,10.40
2023-01-13T05:38:13.524Z,10.40
2023-01-13T05:43:20.577Z,10.50
2023-01-13T05:48:25.529Z,10.50
2023-01-13T05:53:27.349Z,10.50
2023-01-13T05:58:29.081Z,10.50
2023-01-13T06:03:31.173Z,10.50
2023-01-13T06:08:33.167Z,10.50
2023-01-13T06:13:34.992Z,10.40
2023-01-13T06:18:36.672Z,10.40
2023-01-13T06:23:38.650Z,10.50
2023-01-13T06:28:40.537Z,10.40
2023-01-13T06:33:50.743Z,10.30
2023-01-13T06:38:57.207Z,10.20
2023-01-13T06:43:58.942Z,10.10
2023-01-13T06:49:00.657Z,10.10
2023-01-13T06:54:02.498Z,10.10
2023-01-13T06:59:04.216Z,10.10
2023-01-13T07:04:05.941Z,10.00
2023-01-13T07:09:07.664Z,10.00
2023-01-13T07:14:28.353Z,10.00
2023-01-13T07:19:30.214Z,10.10
2023-01-13T07:24:31.925Z,10.10
2023-01-13T07:29:33.627Z,10.10
2023-01-13T07:34:35.632Z,10.10
2023-01-13T07:39:37.358Z,10.00
2023-01-13T07:44:39.071Z,9.90
2023-01-13T07:49:40.757Z,9.90
2023-01-13T07:54:42.453Z,9.90
2023-01-13T07:59:44.224Z,10.00
2023-01-13T08:04:45.993Z,10.00
2023-01-13T08:09:47.722Z,10.10
2023-01-13T08:14:50.841Z,10.00
2023-01-13T08:19:52.553Z,9.60
2023-01-13T08:24:54.266Z,9.20
2023-01-13T08:29:56.015Z,9.10
2023-01-13T08:34:57.716Z,9.10
2023-01-13T08:39:59.385Z,9.00
2023-01-13T08:45:01.184Z,9.00
2023-01-13T08:50:03.534Z,9.10
2023-01-13T08:55:05.849Z,9.00
2023-01-13T09:00:10.347Z,9.10
2023-01-13T09:05:12.151Z,9.10
2023-01-13T09:10:13.883Z,9.10
2023-01-13T09:15:18.370Z,9.00
2023-01-13T09:20:20.121Z,8.80
2023-01-13T09:25:21.832Z,8.80
2023-01-13T09:30:24.081Z,8.80
2023-01-13T09:35:25.809Z,9.00
2023-01-13T09:40:27.739Z,9.20
2023-01-13T09:45:37.280Z,9.60
2023-01-13T09:50:41.861Z,9.60
2023-01-13T09:55:45.310Z,9.50
2023-01-13T10:01:11.776Z,9.60
2023-01-13T10:06:42.126Z,9.80
2023-01-13T10:12:05.353Z,9.70
2023-01-13T10:17:31.679Z,9.70
2023-01-13T10:22:39.222Z,9.40
2023-01-13T10:27:41.762Z,9.30
2023-01-13T10:32:47.302Z,9.50
2023-01-13T10:37:57.398Z,9.80
2023-01-13T10:43:06.676Z,9.80
2023-01-13T10:48:15.405Z,10.90
2023-01-13T10:53:24.283Z,12.10
2023-01-13T10:58:26.582Z,11.10
2023-01-13T11:03:41.423Z,10.70
2023-01-13T11:08:49.212Z,11.50
2023-01-13T11:14:11.582Z,14.50
2023-01-13T11:19:18.210Z,14.10
2023-01-13T11:24:27.633Z,13.50
2023-01-13T11:29:38.241Z,12.50
2023-01-13T11:34:42.515Z,11.70
2023-01-13T11:39:49.276Z,11.10
2023-01-13T11:44:54.464Z,11.00
2023-01-13T11:49:56.425Z,10.80
2023-01-13T11:55:13.692Z,11.30
2023-01-13T12:00:28.021Z,11.40
2023-01-13T12:05:44.280Z,11.20
2023-01-13T12:11:18.115Z,11.20
2023-01-13T12:16:31.122Z,11.00
2023-01-13T12:22:08.935Z,11.00
2023-01-13T12:27:18.077Z,11.00
2023-01-13T12:32:24.257Z,11.00
2023-01-13T12:37:33.300Z,11.10
2023-01-13T12:42:59.624Z,10.90
2023-01-13T12:48:01.578Z,11.00
2023-01-13T12:53:28.774Z,11.00
2023-01-13T12:58:30.555Z,11.10
2023-01-13T13:03:35.526Z,10.90
2023-01-13T13:08:43.110Z,10.70
2023-01-13T13:13:48.247Z,10.80
2023-01-13T13:18:50.210Z,11.30
2023-01-13T13:23:55.117Z,11.60
2023-01-13T13:28:56.785Z,12.00
2023-01-13T13:34:13.248Z,12.20
2023-01-13T13:39:46.779Z,12.70
2023-01-13T13:45:09.029Z,13.50
2023-01-13T13:50:20.233Z,13.80
2023-01-13T13:55:25.193Z,13.40
2023-01-13T14:00:37.982Z,13.50
2023-01-13T14:05:39.871Z,13.60
2023-01-13T14:10:44.844Z,13.20
2023-01-13T14:15:49.270Z,12.90
2023-01-13T14:21:05.052Z,12.70
2023-01-13T14:26:12.953Z,12.80
2023-01-13T14:31:15.111Z,12.60
2023-01-13T14:36:21.020Z,12.80
2023-01-13T14:41:26.717Z,12.40
2023-01-13T14:46:42.903Z,12.20
2023-01-13T14:51:45.169Z,11.90
2023-01-13T14:56:51.363Z,11.90
2023-01-13T15:01:54.689Z,11.70
2023-01-13T15:06:58.005Z,11.30
2023-01-13T15:12:00.372Z,10.90
2023-01-13T15:17:03.252Z,10.70
2023-01-13T15:22:04.944Z,10.80
2023-01-13T15:27:17.432Z,10.70
2023-01-13T15:32:21.550Z,10.50
2023-01-13T15:37:25.583Z,10.20
2023-01-13T15:42:45.806Z,10.00
2023-01-13T15:47:48.217Z,9.80
2023-01-13T15:52:49.970Z,9.70
2023-01-13T15:57:51.700Z,9.60
2023-01-13T16:02:53.540Z,9.40
2023-01-13T16:07:55.328Z,9.20
2023-01-13T16:12:57.229Z,9.10
2023-01-13T16:18:01.048Z,9.20
2023-01-13T16:23:02.896Z,9.30
2023-01-13T16:28:04.780Z,9.30
2023-01-13T16:33:06.507Z,9.30
2023-01-13T16:38:15.168Z,9.30
2023-01-13T16:43:16.899Z,9.20
2023-01-13T16:48:20.363Z,9.10
2023-01-13T16:53:22.081Z,9.10
2023-01-13T16:58:23.881Z,9.00
2023-01-13T17:03:25.878Z,8.90
2023-01-13T17:08:27.610Z,8.90
2023-01-13T17:13:29.320Z,8.70
2023-01-13T17:18:31.026Z,8.70
2023-01-13T17:23:33.383Z,8.60
2023-01-13T17:28:35.137Z,8.60
2023-01-13T17:33:37.149Z,8.60
2023-01-13T17:38:38.853Z,8.70
2023-01-13T17:43:40.654Z,8.50
2023-01-13T17:48:42.367Z,8.40
2023-01-13T17:53:45.504Z,8.30
2023-01-13T17:58:47.231Z,8.00
2023-01-13T18:03:49.558Z,7.90
2023-01-13T18:08:51.641Z,7.90
2023-01-13T18:13:56.686Z,7.80
2023-01-13T18:19:18.068Z,7.70
2023-01-13T18:24:38.560Z,7.70
2023-01-13T18:29:40.259Z,7.70
2023-01-13T18:34:41.995Z,7.60
2023-01-13T18:39:43.895Z,7.70
2023-01-13T18:44:45.634Z,7.80
2023-01-13T18:49:47.440Z,7.80
2023-01-13T18:54:49.222Z,8.00
2023-01-13T18:59:52.127Z,8.00
2023-01-13T19:04:54.408Z,8.00
2023-01-13T19:09:56.292Z,8.00
2023-01-13T19:14:58.805Z,8.00
2023-01-13T19:20:01.108Z,8.00
2023-01-13T19:25:05.950Z,8.10
2023-01-13T19:30:08.488Z,7.90
2023-01-13T19:35:12.944Z,8.00
2023-01-13T19:40:14.836Z,7.90
2023-01-13T19:45:31.217Z,7.90
2023-01-13T19:50:38.418Z,7.70
2023-01-13T19:55:44.963Z,7.80
2023-01-13T20:00:48.313Z,7.90
2023-01-13T20:05:53.904Z,8.10
2023-01-13T20:11:15.602Z,8.20
2023-01-13T20:16:17.810Z,8.20
2023-01-13T20:21:19.990Z,8.30
2023-01-13T20:26:21.746Z,8.30
2023-01-13T20:31:23.565Z,8.40
2023-01-13T20:36:32.853Z,8.40
2023-01-13T20:41:53.124Z,8.40
2023-01-13T20:46:55.767Z,8.40
2023-01-13T20:51:58.111Z,8.40
2023-01-13T20:57:00.525Z,8.40
2023-01-13T21:02:02.999Z,8.60
2023-01-13T21:07:05.102Z,8.30
2023-01-13T21:12:26.199Z,8.20
2023-01-13T21:17:46.758Z,8.10
2023-01-13T21:22:49.217Z,8.10
2023-01-13T21:28:00.206Z,8.20
2023-01-13T21:33:03.954Z,8.00
2023-01-13T21:38:05.689Z,8.00
2023-01-13T21:43:30.253Z,8.10
2023-01-13T21:48:32.031Z,8.00
2023-01-13T21:53:33.730Z,8.10
2023-01-13T21:58:35.466Z,8.00
2023-01-13T22:03:57.206Z,8.00
2023-01-13T22:09:00.960Z,8.00
2023-01-13T22:14:06.448Z,8.00
2023-01-13T22:19:09.883Z,8.10
2023-01-13T22:24:11.996Z,8.10
2023-01-13T22:29:13.719Z,8.00
2023-01-13T22:34:15.403Z,8.00
2023-01-13T22:39:17.130Z,8.10
2023-01-13T22:44:20.078Z,8.00
2023-01-13T22:49:21.906Z,8.00
2023-01-13T22:54:23.639Z,7.90
2023-01-13T22:59:25.549Z,7.80
2023-01-13T23:04:27.416Z,7.70
2023-01-13T23:09:29.957Z,7.60
2023-01-13T23:14:31.764Z,7.40
2023-01-13T23:19:33.512Z,7.30
2023-01-13T23:24:35.204Z,7.30
2023-01-13T23:29:37.085Z,7.20
2023-01-13T23:34:38.801Z,7.30
2023-01-13T23:39:40.576Z,7.30
2023-01-13T23:44:42.300Z,7.30
2023-01-13T23:49:44.078Z,7.40
2023-01-13T23:54:45.850Z,7.30
2023-01-13T23:59:47.601Z,7.30
